UAE125U OMDB-VRMM
Flight info
| Callsign | UAE125U |
|---|---|
| Flight time | N/A |
| Altitude | 37000 |
| Route | ANVIX L223 TARDI N629 GIDAN P570 KITAL L894 ELBET ELBET1B |
| Aircraft | B77W/H-SDE1E2E3FGHIJ2J3J4J5M1RWXY/LB1D1 |
Departure
| Time | 2026-05-05 14:43 |
|---|---|
| Airport | Dubai International Airport (OMDB) |
Arrival
| Time | N/A |
|---|---|
| Airport | Velana International Airport (VRMM) |
| Time | Latitude | Longitude | Altitude | Speed | Heading |
|---|---|---|---|---|---|
| 2026-05-05 14:14 | 25.24209 | 55.37588 | 26 ft | 0 kts | 249° |
| 2026-05-05 14:35 | 25.24216 | 55.37609 | 31 ft | 4 kts | 249° |
| 2026-05-05 14:35 | 25.24226 | 55.37637 | 32 ft | 4 kts | 249° |
| 2026-05-05 14:35 | 25.24233 | 55.37663 | 30 ft | 4 kts | 284° |
| 2026-05-05 14:36 | 25.24221 | 55.37687 | 32 ft | 2 kts | 302° |
| 2026-05-05 14:36 | 25.24209 | 55.37707 | 32 ft | 4 kts | 315° |
| 2026-05-05 14:36 | 25.24189 | 55.37721 | 32 ft | 4 kts | 7° |
| 2026-05-05 14:36 | 25.24171 | 55.37713 | 31 ft | 4 kts | 31° |
| 2026-05-05 14:37 | 25.24150 | 55.37698 | 31 ft | 2 kts | 31° |
| 2026-05-05 14:37 | 25.24149 | 55.37698 | 31 ft | 0 kts | 31° |
| 2026-05-05 14:40 | 25.24151 | 55.37699 | 31 ft | 4 kts | 31° |
| 2026-05-05 14:40 | 25.24235 | 55.37756 | 31 ft | 23 kts | 31° |
| 2026-05-05 14:40 | 25.24373 | 55.37853 | 27 ft | 24 kts | 34° |
| 2026-05-05 14:40 | 25.24507 | 55.37955 | 30 ft | 22 kts | 34° |
| 2026-05-05 14:41 | 25.24617 | 55.37979 | 28 ft | 15 kts | 334° |
| 2026-05-05 14:41 | 25.24721 | 55.37994 | 29 ft | 16 kts | 28° |
| 2026-05-05 14:41 | 25.24804 | 55.38019 | 30 ft | 7 kts | 330° |
| 2026-05-05 14:41 | 25.24833 | 55.37976 | 30 ft | 6 kts | 303° |
| 2026-05-05 14:42 | 25.24895 | 55.37866 | 31 ft | 37 kts | 301° |
| 2026-05-05 14:42 | 25.25172 | 55.37368 | 32 ft | 116 kts | 301° |
| 2026-05-05 14:42 | 25.25712 | 55.36389 | 55 ft | 175 kts | 302° |
| 2026-05-05 14:42 | 25.26384 | 55.35204 | 562 ft | 186 kts | 303° |
| 2026-05-05 14:43 | 25.27073 | 55.33974 | 1136 ft | 197 kts | 304° |
| 2026-05-05 14:43 | 25.27803 | 55.32647 | 1700 ft | 208 kts | 304° |
| 2026-05-05 14:43 | 25.28558 | 55.31256 | 2321 ft | 212 kts | 303° |
| 2026-05-05 14:43 | 25.29254 | 55.29825 | 3017 ft | 215 kts | 290° |
| 2026-05-05 14:44 | 25.29265 | 55.28162 | 3488 ft | 221 kts | 247° |
| 2026-05-05 14:44 | 25.28561 | 55.26710 | 4216 ft | 214 kts | 238° |
| 2026-05-05 14:44 | 25.27851 | 55.25275 | 4962 ft | 210 kts | 242° |
| 2026-05-05 14:44 | 25.27194 | 55.23816 | 5580 ft | 214 kts | 243° |
| 2026-05-05 14:45 | 25.26545 | 55.22329 | 6235 ft | 215 kts | 243° |
| 2026-05-05 14:45 | 25.25903 | 55.20846 | 6804 ft | 220 kts | 243° |
| 2026-05-05 14:45 | 25.25218 | 55.19250 | 7035 ft | 244 kts | 244° |
| 2026-05-05 14:45 | 25.24307 | 55.17626 | 6971 ft | 251 kts | 221° |
| 2026-05-05 14:46 | 25.22774 | 55.16756 | 7015 ft | 255 kts | 187° |
| 2026-05-05 14:46 | 25.20978 | 55.16763 | 7204 ft | 262 kts | 175° |
| 2026-05-05 14:46 | 25.19194 | 55.17186 | 7796 ft | 267 kts | 152° |
| 2026-05-05 14:46 | 25.17791 | 55.18547 | 8365 ft | 278 kts | 123° |
| 2026-05-05 14:47 | 25.16840 | 55.20455 | 8876 ft | 289 kts | 117° |
| 2026-05-05 14:47 | 25.15901 | 55.22454 | 9584 ft | 296 kts | 118° |
| 2026-05-05 14:47 | 25.14939 | 55.24486 | 10320 ft | 300 kts | 118° |
| 2026-05-05 14:47 | 25.13958 | 55.26540 | 11139 ft | 304 kts | 118° |
| 2026-05-05 14:48 | 25.12975 | 55.28597 | 11965 ft | 309 kts | 118° |
| 2026-05-05 14:48 | 25.11969 | 55.30692 | 12977 ft | 310 kts | 118° |
| 2026-05-05 14:48 | 25.10950 | 55.32810 | 13824 ft | 315 kts | 118° |
| 2026-05-05 14:48 | 25.09973 | 55.35000 | 14508 ft | 321 kts | 114° |
| 2026-05-05 14:49 | 25.09060 | 55.37248 | 14778 ft | 322 kts | 114° |
| 2026-05-05 14:49 | 25.08141 | 55.39526 | 15006 ft | 326 kts | 114° |
| 2026-05-05 14:49 | 25.07202 | 55.41832 | 15853 ft | 333 kts | 114° |
| 2026-05-05 14:49 | 25.06264 | 55.44234 | 16389 ft | 352 kts | 112° |
| 2026-05-05 14:50 | 25.05276 | 55.46828 | 16588 ft | 379 kts | 112° |
| 2026-05-05 14:50 | 25.04218 | 55.49602 | 16747 ft | 405 kts | 112° |
| 2026-05-05 14:50 | 25.03101 | 55.52510 | 17061 ft | 424 kts | 112° |